Time;durP1;ratioP1;P1;durP2;ratioP2;P2;SDS_P1;SDS_P2;PMS_P1;PMS_P2;Temp;Humidity;BMP_temperature;BMP_pressure;BME280_temperature;BME280_humidity;BME280_pressure;Samples;Min_cycle;Max_cycle;Signal;HPM_P1;HPM_P2
2022/12/19 11:57:02;;;;;;;;;8.75;8.75;;;;;9.14;100.00;101574.53;5100217;27;49742;-67
2022/12/19 11:59:34;;;;;;;;;8.75;7.75;;;;;9.46;100.00;101567.06;5088168;27;49870;-67
2022/12/19 12:02:17;;;;;;;;;8.75;6.50;;;;;9.77;100.00;101570.81;5092092;27;50020;-68
2022/12/19 12:05:22;;;;;;;;;8.50;7.00;;;;;9.93;100.00;101574.03;5103655;27;49858;-65
2022/12/19 12:08:01;;;;;;;;;6.00;6.00;;;;;10.09;100.00;101556.22;5099509;27;49821;-65
2022/12/19 12:10:29;;;;;;;;;9.00;6.75;;;;;9.69;100.00;101471.78;5103685;27;49584;-66
2022/12/19 12:13:09;;;;;;;;;6.75;6.00;;;;;10.34;100.00;101539.66;5104690;27;49603;-64
2022/12/19 12:15:37;;;;;;;;;7.00;7.00;;;;;10.49;100.00;101542.78;5087159;27;50631;-65
2022/12/19 12:18:17;;;;;;;;;4.00;4.00;;;;;10.65;100.00;101560.81;5096248;27;49451;-64
2022/12/19 12:21:16;;;;;;;;;8.25;7.25;;;;;10.78;100.00;101548.97;5094775;27;49679;-65
2022/12/19 12:24:20;;;;;;;;;8.00;5.25;;;;;10.78;100.00;101533.22;5084325;27;49761;-64
2022/12/19 12:26:57;;;;;;;;;6.00;4.25;;;;;10.97;100.00;101543.47;5063431;28;49741;-64
2022/12/19 12:29:25;;;;;;;;;8.75;7.00;;;;;11.00;100.00;101525.19;5084234;27;49755;-66
2022/12/19 12:32:25;;;;;;;;;7.75;5.00;;;;;10.74;100.00;101484.09;5090622;27;49752;-66
2022/12/19 12:35:02;;;;;;;;;5.00;5.00;;;;;10.76;100.00;101466.63;5086406;27;49703;-64
2022/12/19 12:37:42;;;;;;;;;7.25;4.50;;;;;11.08;100.00;101517.53;5086650;27;50947;-63
2022/12/19 12:40:23;;;;;;;;;4.75;4.00;;;;;11.17;100.00;101515.19;5087120;27;49941;-64
2022/12/19 12:43:13;;;;;;;;;3.50;3.50;;;;;11.04;100.00;101487.66;5092419;27;50052;-63
2022/12/19 12:45:41;;;;;;;;;3.00;3.00;;;;;11.25;100.00;101510.16;5096530;27;50007;-64
2022/12/19 12:48:15;;;;;;;;;4.75;4.75;;;;;11.13;100.00;101490.56;5086494;27;49810;-64
2022/12/19 12:50:42;;;;;;;;;4.50;4.50;;;;;11.15;100.00;101496.75;5087442;27;49596;-65
2022/12/19 12:53:11;;;;;;;;;8.00;7.25;;;;;11.01;100.00;101436.75;5092006;27;49829;-64
2022/12/19 12:55:40;;;;;;;;;8.75;7.25;;;;;11.01;100.00;101421.00;5084329;27;50139;-64
2022/12/19 12:58:42;;;;;;;;;8.00;8.00;;;;;11.14;100.00;101459.91;5086021;27;50936;-65
2022/12/19 13:01:11;;;;;;;;;8.75;8.00;;;;;11.55;100.00;101473.34;5090210;27;49767;-66
2022/12/19 13:03:40;;;;;;;;;6.25;3.75;;;;;11.76;100.00;101497.63;5085764;27;49757;-66
2022/12/19 13:06:23;;;;;;;;;6.25;4.50;;;;;11.64;100.00;101429.78;5086042;27;49860;-66
2022/12/19 13:09:00;;;;;;;;;7.00;5.50;;;;;11.06;100.00;101333.56;5072083;28;51446;-68
2022/12/19 13:14:34;;;;;;;;;5.25;5.25;;;;;12.05;100.00;101487.91;5072421;28;49891;-65
2022/12/19 13:17:11;;;;;;;;;7.00;4.75;;;;;12.12;100.00;101478.44;5071955;27;49702;-68
2022/12/19 13:19:50;;;;;;;;;5.25;5.25;;;;;11.97;100.00;101457.91;5069754;27;51053;-71
2022/12/19 13:22:19;;;;;;;;;5.00;5.00;;;;;11.59;100.00;101381.47;5079315;27;49915;-72
2022/12/19 13:24:55;;;;;;;;;5.25;4.50;;;;;12.20;100.00;101504.13;5080270;27;49606;-77
2022/12/19 13:27:20;;;;;;;;;4.75;4.75;;;;;12.21;100.00;101487.47;5082589;27;49712;-68
2022/12/19 13:30:11;;;;;;;;;7.00;5.00;;;;;12.10;100.00;101478.41;5085412;27;49781;-69
2022/12/19 13:32:39;;;;;;;;;4.50;4.50;;;;;12.19;100.00;101498.81;5082166;27;49940;-69
2022/12/19 13:35:08;;;;;;;;;5.00;5.00;;;;;12.18;100.00;101511.09;5080647;27;50296;-69
2022/12/19 13:37:36;;;;;;;;;4.00;3.25;;;;;12.16;100.00;101506.59;5093731;27;49515;-69
2022/12/19 13:40:23;;;;;;;;;7.25;5.75;;;;;12.02;100.00;101490.47;5079860;27;49848;-69
2022/12/19 13:46:00;;;;;;;;;3.00;3.00;;;;;12.01;100.00;101488.69;5086326;28;49362;-70
2022/12/19 13:48:32;;;;;;;;;6.25;6.25;;;;;11.75;100.00;101440.59;5092779;27;49582;-68
2022/12/19 13:51:03;;;;;;;;;8.00;8.00;;;;;11.80;100.00;101428.50;5094565;27;49932;-69
2022/12/19 13:53:28;;;;;;;;;6.00;5.25;;;;;12.17;100.00;101458.41;5089539;28;49198;-67
2022/12/19 13:55:59;;;;;;;;;9.00;8.00;;;;;11.76;100.00;101388.03;5090616;27;49615;-69
2022/12/19 13:58:28;;;;;;;;;7.75;6.25;;;;;12.14;100.00;101455.69;5092014;27;49746;-71
2022/12/19 14:00:57;;;;;;;;;7.00;5.50;;;;;12.18;100.00;101481.25;5097064;27;49910;-73
2022/12/19 14:03:37;;;;;;;;;9.00;8.00;;;;;11.75;100.00;101403.78;5085292;27;49557;-68
2022/12/19 14:06:26;;;;;;;;;8.00;6.25;;;;;12.10;100.00;101464.38;5090915;27;49480;-65
2022/12/19 14:08:58;;;;;;;;;7.25;3.75;;;;;10.88;100.00;101284.03;5080085;28;49798;-66
2022/12/19 14:11:26;;;;;;;;;4.75;4.75;;;;;11.92;100.00;101460.41;5085114;27;49964;-67
2022/12/19 14:16:46;;;;;;;;;5.00;5.00;;;;;11.67;100.00;101385.16;5082753;28;49754;-68
2022/12/19 14:19:18;;;;;;;;;4.00;4.00;;;;;12.11;100.00;101456.50;5081249;28;49601;-64
2022/12/19 14:21:44;;;;;;;;;7.75;7.75;;;;;11.99;100.00;101448.28;5075930;27;50064;-67
2022/12/19 14:24:21;;;;;;;;;5.00;5.00;;;;;11.37;100.00;101342.28;5068798;27;49756;-67
2022/12/19 14:26:54;;;;;;;;;8.75;5.75;;;;;11.64;100.00;101394.72;5080438;27;49807;-71
2022/12/19 14:29:28;;;;;;;;;5.00;5.00;;;;;10.73;100.00;101253.84;5075235;27;49731;-69
2022/12/19 14:31:54;;;;;;;;;8.75;6.00;;;;;11.06;100.00;101312.53;5077984;27;50314;-65
2022/12/19 14:34:23;;;;;;;;;7.00;4.75;;;;;11.89;100.00;101444.53;5088624;28;49312;-63
2022/12/19 14:36:52;;;;;;;;;7.00;5.25;;;;;11.96;100.00;101446.44;5087707;28;49411;-63
2022/12/19 14:39:19;;;;;;;;;5.75;4.75;;;;;11.99;100.00;101464.09;5088388;28;49479;-64
2022/12/19 14:44:54;;;;;;;;;4.75;4.75;;;;;11.98;100.00;101481.63;5077517;28;50588;-65
2022/12/19 14:47:24;;;;;;;;;5.00;5.00;;;;;12.09;100.00;101488.91;5082139;28;49438;-63
2022/12/19 14:49:51;;;;;;;;;9.00;6.00;;;;;12.04;100.00;101515.09;5085754;28;49941;-66
2022/12/19 14:52:36;;;;;;;;;5.00;4.50;;;;;12.04;100.00;101479.13;5086491;27;49582;-64
2022/12/19 14:55:21;;;;;;;;;5.50;5.50;;;;;11.93;100.00;101462.16;5090647;27;49260;-72
2022/12/19 14:57:50;;;;;;;;;13.75;6.25;;;;;12.01;100.00;101473.78;5080500;27;50542;-63
2022/12/19 15:00:30;;;;;;;;;10.00;8.25;;;;;12.00;100.00;101479.91;5084311;28;49603;-65
2022/12/19 15:03:00;;;;;;;;;7.00;5.75;;;;;11.71;100.00;101422.97;5081372;27;49690;-64
2022/12/19 15:05:27;;;;;;;;;5.00;5.00;;;;;11.90;100.00;101448.06;5090715;27;49538;-65
2022/12/19 15:07:56;;;;;;;;;6.50;5.50;;;;;12.03;100.00;101468.56;5086773;28;49606;-62
2022/12/19 15:10:26;;;;;;;;;7.25;5.25;;;;;11.73;100.00;101405.47;5079726;28;49755;-66
2022/12/19 15:13:19;;;;;;;;;4.00;4.00;;;;;11.73;100.00;101395.84;5076124;27;50804;-65
2022/12/19 15:16:00;;;;;;;;;7.75;6.75;;;;;12.01;100.00;101449.22;5080813;28;49691;-68
2022/12/19 15:18:33;;;;;;;;;1.00;1.00;;;;;11.84;100.00;101454.03;5084107;28;49366;-64
2022/12/19 15:21:03;;;;;;;;;11.25;8.25;;;;;11.93;100.00;101466.53;5072074;28;49723;-62
2022/12/19 15:23:30;;;;;;;;;5.50;5.50;;;;;11.99;100.00;101493.91;5064626;28;50960;-63
2022/12/19 15:25:59;;;;;;;;;6.00;6.00;;;;;11.98;100.00;101489.50;5072974;27;49732;-65
2022/12/19 15:28:51;;;;;;;;;8.00;6.00;;;;;11.99;100.00;101499.19;5064221;28;49869;-68
2022/12/19 15:31:23;;;;;;;;;4.25;4.25;;;;;11.84;100.00;101475.06;5067959;27;50058;-63
2022/12/19 15:33:48;;;;;;;;;10.00;5.25;;;;;11.97;100.00;101494.75;5068985;28;50361;-67
2022/12/19 15:36:14;;;;;;;;;5.25;4.25;;;;;12.03;100.00;101500.16;5079216;27;49885;-62
2022/12/19 15:38:39;;;;;;;;;6.00;5.25;;;;;12.02;100.00;101488.72;5069465;28;49818;-62
2022/12/19 15:41:05;;;;;;;;;4.50;4.50;;;;;12.03;100.00;101501.03;5070099;28;49815;-69
2022/12/19 15:43:31;;;;;;;;;5.50;5.50;;;;;11.97;100.00;101502.63;5070070;28;50756;-70
2022/12/19 15:45:57;;;;;;;;;8.75;6.75;;;;;11.87;100.00;101472.56;5069719;27;49813;-65
2022/12/19 15:48:26;;;;;;;;;4.50;4.50;;;;;11.68;100.00;101422.91;5065995;28;50024;-72
2022/12/19 15:50:51;;;;;;;;;3.25;3.25;;;;;11.71;100.00;101437.00;5068712;28;50079;-69
2022/12/19 15:53:27;;;;;;;;;5.00;5.00;;;;;11.90;100.00;101448.94;5069931;27;50784;-72
2022/12/19 15:55:56;;;;;;;;;4.25;4.25;;;;;12.01;100.00;101481.69;5070334;28;49810;-71
2022/12/19 15:58:22;;;;;;;;;4.25;4.25;;;;;11.65;100.00;101412.28;5069917;28;49841;-71
2022/12/19 16:00:55;;;;;;;;;6.00;6.00;;;;;11.72;100.00;101417.75;5063102;28;49890;-68
2022/12/19 16:03:21;;;;;;;;;5.25;4.00;;;;;11.99;100.00;101477.25;5069653;28;49800;-64
2022/12/19 16:05:47;;;;;;;;;10.25;5.75;;;;;12.00;100.00;101464.13;5070280;28;49943;-71
2022/12/19 16:08:18;;;;;;;;;4.00;4.00;;;;;12.01;100.00;101458.00;5065622;28;49984;-70
2022/12/19 16:10:46;;;;;;;;;7.00;3.50;;;;;12.00;100.00;101469.38;5070126;28;49807;-65
2022/12/19 16:13:23;;;;;;;;;4.25;4.25;;;;;11.69;100.00;101415.03;5069689;28;50555;-61
2022/12/19 16:15:49;;;;;;;;;5.75;5.50;;;;;11.92;100.00;101467.41;5069713;28;49614;-69
2022/12/19 16:18:15;;;;;;;;;6.25;6.25;;;;;11.91;100.00;101463.88;5069111;28;49813;-68
2022/12/19 16:20:41;;;;;;;;;5.75;5.75;;;;;11.82;100.00;101455.75;5069511;28;49725;-63
2022/12/19 16:23:07;;;;;;;;;7.00;7.00;;;;;11.37;100.00;101363.31;5068881;28;51366;-64
2022/12/19 16:25:51;;;;;;;;;3.50;3.50;;;;;11.95;100.00;101475.38;5068192;27;50122;-64
2022/12/19 16:28:27;;;;;;;;;4.50;4.50;;;;;11.95;100.00;101478.00;5069478;27;49703;-63
2022/12/19 16:30:55;;;;;;;;;6.50;5.00;;;;;11.95;100.00;101491.16;5070749;27;49789;-64
2022/12/19 16:33:29;;;;;;;;;5.00;5.00;;;;;11.84;100.00;101482.97;5069876;28;49730;-66
2022/12/19 16:35:55;;;;;;;;;4.25;4.25;;;;;11.63;100.00;101432.38;5069522;28;49812;-63
2022/12/19 16:38:22;;;;;;;;;7.25;5.00;;;;;11.78;100.00;101447.72;5084692;27;50126;-64
2022/12/19 16:40:51;;;;;;;;;5.00;5.00;;;;;11.11;100.00;101341.59;5069902;28;49742;-65
2022/12/19 16:43:38;;;;;;;;;8.25;5.75;;;;;11.93;100.00;101477.06;5072051;28;50646;-67
2022/12/19 16:46:06;;;;;;;;;6.75;6.00;;;;;11.67;100.00;101431.59;5073038;28;49797;-66
2022/12/19 16:48:34;;;;;;;;;6.75;6.75;;;;;11.76;100.00;101442.38;5072717;28;50105;-66
2022/12/19 16:51:00;;;;;;;;;4.25;4.25;;;;;11.71;100.00;101429.13;5073428;28;49945;-65
2022/12/19 16:53:25;;;;;;;;;6.25;6.25;;;;;11.91;100.00;101460.34;5072562;28;52330;-71
2022/12/19 16:55:52;;;;;;;;;7.50;6.00;;;;;11.62;100.00;101401.69;5067107;27;49925;-67
2022/12/19 16:58:23;;;;;;;;;6.50;6.50;;;;;11.88;100.00;101452.41;5071890;27;49737;-66
2022/12/19 17:00:51;;;;;;;;;5.00;4.75;;;;;12.00;100.00;101482.53;5072613;27;49904;-71
2022/12/19 17:03:41;;;;;;;;;8.50;7.00;;;;;12.06;100.00;101470.38;5065342;27;50704;-67
2022/12/19 17:06:18;;;;;;;;;5.00;5.00;;;;;12.02;100.00;101456.25;5072388;27;49849;-69
2022/12/19 17:08:44;;;;;;;;;4.25;3.00;;;;;11.75;100.00;101415.19;5067842;27;49890;-68
2022/12/19 17:11:16;;;;;;;;;5.00;5.00;;;;;12.02;100.00;101462.41;5081699;27;49695;-67
2022/12/19 17:13:44;;;;;;;;;6.00;6.00;;;;;11.54;100.00;101408.47;5066198;27;50814;-71
2022/12/19 17:16:10;;;;;;;;;8.25;6.75;;;;;10.74;100.00;101264.38;5069460;27;50008;-71
2022/12/19 17:18:40;;;;;;;;;5.00;5.00;;;;;11.23;100.00;101334.03;5078229;27;49904;-74
2022/12/19 17:21:06;;;;;;;;;5.75;5.00;;;;;12.03;100.00;101468.56;5099766;27;49968;-66
2022/12/19 17:23:34;;;;;;;;;6.25;6.25;;;;;11.54;100.00;101376.91;5077161;28;50325;-67
2022/12/19 17:25:59;;;;;;;;;6.75;6.75;;;;;11.48;100.00;101372.38;5073571;27;49956;-70
2022/12/19 17:28:26;;;;;;;;;6.25;6.25;;;;;11.99;100.00;101453.56;5071690;28;49687;-63
2022/12/19 17:30:56;;;;;;;;;7.25;6.00;;;;;12.10;100.00;101456.47;5075409;27;49865;-69
2022/12/19 17:33:25;;;;;;;;;8.50;8.50;;;;;11.96;100.00;101414.88;5073962;28;50986;-73
2022/12/19 17:35:50;;;;;;;;;10.25;6.25;;;;;12.11;100.00;101438.06;5080171;28;49715;-70
2022/12/19 17:38:17;;;;;;;;;4.25;4.25;;;;;11.72;100.00;101359.88;5079379;28;49880;-70
2022/12/19 17:40:43;;;;;;;;;10.00;9.50;;;;;12.06;100.00;101429.16;5071264;28;50008;-68
2022/12/19 17:43:10;;;;;;;;;6.00;6.00;;;;;12.07;100.00;101454.66;5068293;28;50452;-68
2022/12/19 17:45:40;;;;;;;;;9.00;6.00;;;;;11.87;100.00;101404.16;5073295;27;49652;-74
2022/12/19 17:48:27;;;;;;;;;9.75;8.00;;;;;12.10;100.00;101448.56;5071044;28;49910;-69
2022/12/19 17:50:53;;;;;;;;;5.75;5.75;;;;;11.92;100.00;101414.78;5070259;28;49720;-74
2022/12/19 17:53:19;;;;;;;;;8.00;6.00;;;;;11.84;100.00;101404.03;5071160;28;49877;-73
2022/12/19 17:55:45;;;;;;;;;10.00;7.50;;;;;11.16;100.00;101293.56;5072309;28;49803;-78
2022/12/19 17:58:11;;;;;;;;;6.25;6.25;;;;;11.76;100.00;101381.88;5074169;28;50186;-69
2022/12/19 18:00:38;;;;;;;;;8.00;6.00;;;;;12.08;100.00;101423.97;5089142;27;49760;-74
2022/12/19 18:03:33;;;;;;;;;8.00;8.00;;;;;12.19;100.00;101449.69;5088280;28;49976;-67
2022/12/19 18:05:58;;;;;;;;;9.00;5.25;;;;;12.15;100.00;101433.78;5084686;28;49472;-76
2022/12/19 18:08:25;;;;;;;;;6.50;6.50;;;;;12.22;100.00;101440.97;5087795;27;49698;-63
2022/12/19 18:10:51;;;;;;;;;5.00;5.00;;;;;12.09;100.00;101417.84;5074454;28;49902;-88
2022/12/19 18:13:16;;;;;;;;;5.25;5.00;;;;;12.15;100.00;101455.72;5065008;28;50166;-80
2022/12/19 18:15:44;;;;;;;;;9.25;8.00;;;;;11.45;100.00;101336.38;5071439;27;50303;-63
2022/12/19 18:18:12;;;;;;;;;8.00;8.00;;;;;12.22;100.00;101444.50;5071633;28;50133;-63
2022/12/19 18:20:38;;;;;;;;;8.00;8.00;;;;;11.91;100.00;101405.09;5071631;28;49768;-68
2022/12/19 18:23:12;;;;;;;;;5.50;5.50;;;;;11.55;100.00;101336.63;5070341;27;53097;-75
2022/12/19 18:25:38;;;;;;;;;7.75;7.75;;;;;12.11;100.00;101424.91;5071544;28;49885;-75
2022/12/19 18:28:04;;;;;;;;;11.25;10.00;;;;;12.18;100.00;101441.75;5071630;28;49735;-78
2022/12/19 18:30:29;;;;;;;;;9.75;9.00;;;;;12.03;100.00;101414.19;5071791;28;49942;-74
2022/12/19 18:32:57;;;;;;;;;8.25;6.50;;;;;11.97;100.00;101406.16;5071462;27;49977;-74
2022/12/19 18:35:30;;;;;;;;;11.00;10.75;;;;;11.88;100.00;101398.03;5071481;28;49733;-69
2022/12/19 18:37:58;;;;;;;;;9.75;7.75;;;;;12.06;100.00;101430.91;5071456;28;49750;-77
2022/12/19 18:40:24;;;;;;;;;4.75;4.75;;;;;11.98;100.00;101417.56;5071376;28;49853;-72
2022/12/19 18:42:49;;;;;;;;;16.00;8.25;;;;;12.27;100.00;101466.56;5071170;28;50365;-75
2022/12/19 18:45:17;;;;;;;;;7.00;7.00;;;;;12.30;100.00;101471.03;5071733;27;49884;-78
2022/12/19 18:47:45;;;;;;;;;9.75;7.75;;;;;12.25;100.00;101448.94;5071631;28;49780;-78
2022/12/19 18:50:19;;;;;;;;;8.00;8.00;;;;;12.35;100.00;101476.38;5071907;28;49853;-73
2022/12/19 18:52:45;;;;;;;;;6.00;5.75;;;;;12.36;100.00;101465.03;5071434;28;50398;-76
2022/12/19 18:55:16;;;;;;;;;6.50;6.50;;;;;12.39;100.00;101467.72;5070749;28;49800;-65
2022/12/19 18:57:43;;;;;;;;;5.00;4.25;;;;;12.41;100.00;101471.28;5071075;28;49644;-70
2022/12/19 19:00:10;;;;;;;;;8.25;7.50;;;;;12.33;100.00;101457.91;5071490;28;50070;-70
2022/12/19 19:02:35;;;;;;;;;10.00;8.00;;;;;12.25;100.00;101441.03;5071052;28;49744;-63
2022/12/19 19:05:01;;;;;;;;;9.00;9.00;;;;;12.11;100.00;101410.88;5070789;27;49776;-69
2022/12/19 19:07:26;;;;;;;;;9.00;9.00;;;;;12.11;100.00;101398.59;5071282;28;49745;-64
2022/12/19 19:09:52;;;;;;;;;7.00;6.00;;;;;12.45;100.00;101458.25;5070881;28;50191;-62
2022/12/19 19:12:18;;;;;;;;;10.00;6.50;;;;;11.76;100.00;101324.00;5070997;27;50818;-76
2022/12/19 19:14:43;;;;;;;;;9.75;8.25;;;;;12.48;100.00;101452.16;5070079;27;63258;-74
2022/12/19 19:17:25;;;;;;;;;9.00;9.00;;;;;12.51;100.00;101463.63;5070293;28;49754;-63
2022/12/19 19:19:50;;;;;;;;;6.25;6.25;;;;;12.55;100.00;101464.63;5070607;28;49644;-62
2022/12/19 19:22:16;;;;;;;;;5.25;5.00;;;;;11.81;100.00;101353.09;5069180;28;52453;-78
2022/12/19 19:24:41;;;;;;;;;9.25;5.00;;;;;12.61;100.00;101464.75;5070507;28;49993;-62
2022/12/19 19:27:07;;;;;;;;;6.00;6.00;;;;;11.34;100.00;101248.47;5070972;28;50541;-62
2022/12/19 19:29:32;;;;;;;;;6.50;6.50;;;;;11.74;100.00;101313.47;5070876;27;49797;-62
2022/12/19 19:31:57;;;;;;;;;6.50;6.50;;;;;11.52;100.00;101273.44;5070625;28;49722;-64
2022/12/19 19:34:30;;;;;;;;;6.00;5.00;;;;;12.06;100.00;101351.94;5065757;28;49835;-63
2022/12/19 19:36:59;;;;;;;;;9.25;6.00;;;;;12.72;100.00;101462.34;5076213;27;49912;-68
2022/12/19 19:39:26;;;;;;;;;6.00;6.00;;;;;11.89;100.00;101320.00;5079785;27;49850;-69
2022/12/19 19:41:52;;;;;;;;;9.75;8.00;;;;;12.23;100.00;101374.31;5065896;28;50785;-66
2022/12/19 19:44:18;;;;;;;;;8.25;8.25;;;;;11.67;100.00;101298.38;5062973;27;49770;-68
2022/12/19 19:46:43;;;;;;;;;7.50;6.75;;;;;12.04;100.00;101391.41;5072359;27;49844;-67
2022/12/19 19:49:09;;;;;;;;;7.50;7.50;;;;;12.55;100.00;101443.56;5076220;27;50116;-63
2022/12/19 19:51:34;;;;;;;;;6.00;4.50;;;;;12.47;100.00;101424.03;5068083;27;50142;-66
2022/12/19 19:54:00;;;;;;;;;6.00;6.00;;;;;12.77;100.00;101466.00;5070245;28;49760;-70
2022/12/19 19:56:25;;;;;;;;;10.00;8.75;;;;;12.81;100.00;101471.38;5072893;28;49732;-67
2022/12/19 19:58:51;;;;;;;;;6.75;6.75;;;;;12.76;100.00;101458.97;5070557;28;49961;-67
2022/12/19 20:01:17;;;;;;;;;7.25;7.25;;;;;11.87;100.00;101313.78;5071471;27;49804;-62
2022/12/19 20:03:43;;;;;;;;;9.25;9.25;;;;;12.32;100.00;101391.22;5071398;27;49838;-69
2022/12/19 20:06:09;;;;;;;;;5.25;5.25;;;;;12.02;100.00;101356.25;5070416;27;50084;-62
2022/12/19 20:08:35;;;;;;;;;8.75;7.50;;;;;11.57;100.00;101254.28;5069827;27;49949;-72
2022/12/19 20:11:01;;;;;;;;;7.75;7.25;;;;;12.85;100.00;101470.59;5072691;27;49527;-63
2022/12/19 20:13:28;;;;;;;;;9.25;8.25;;;;;12.52;100.00;101396.06;5080442;27;49762;-61
2022/12/19 20:16:03;;;;;;;;;7.50;7.50;;;;;12.26;100.00;101341.06;5080596;27;49910;-63
2022/12/19 20:18:29;;;;;;;;;7.25;6.00;;;;;12.52;100.00;101394.31;5074834;27;49613;-63
2022/12/19 20:20:54;;;;;;;;;5.25;5.25;;;;;12.80;100.00;101437.97;5077936;27;51451;-63
2022/12/19 20:23:19;;;;;;;;;5.50;5.50;;;;;12.82;100.00;101438.88;5075255;27;49847;-66
2022/12/19 20:25:45;;;;;;;;;7.25;6.25;;;;;12.43;100.00;101388.81;5075531;27;49926;-77
2022/12/19 20:28:10;;;;;;;;;6.75;6.50;;;;;12.81;100.00;101437.09;5077371;27;49792;-62
2022/12/19 20:30:36;;;;;;;;;4.75;4.25;;;;;12.87;100.00;101463.63;5074691;27;49826;-78
2022/12/19 20:33:02;;;;;;;;;4.75;4.50;;;;;12.85;100.00;101438.09;5072252;27;50032;-67
2022/12/19 20:35:27;;;;;;;;;5.00;5.00;;;;;12.09;100.00;101336.25;5078430;27;49825;-64
2022/12/19 20:37:53;;;;;;;;;6.50;5.50;;;;;12.79;100.00;101436.19;5073478;28;50067;-77
2022/12/19 20:40:18;;;;;;;;;7.00;5.50;;;;;12.82;100.00;101435.38;5076541;27;50603;-71
2022/12/19 20:42:43;;;;;;;;;5.00;4.00;;;;;12.82;100.00;101433.63;5080733;27;49671;-62
2022/12/19 20:45:09;;;;;;;;;6.50;5.00;;;;;12.29;100.00;101354.28;5074845;27;49925;-63
2022/12/19 20:47:34;;;;;;;;;4.75;4.00;;;;;12.77;100.00;101429.13;5074413;27;49556;-63
2022/12/19 20:50:00;;;;;;;;;5.50;4.00;;;;;12.38;100.00;101353.63;5095318;27;49555;-62
2022/12/19 20:52:25;;;;;;;;;7.50;5.75;;;;;11.66;100.00;101240.47;5091827;27;49860;-62
2022/12/19 20:54:50;;;;;;;;;9.50;6.75;;;;;12.77;100.00;101419.47;5088992;27;49454;-61
2022/12/19 20:57:15;;;;;;;;;5.50;5.00;;;;;11.51;100.00;101209.47;5091768;27;49611;-66
2022/12/19 20:59:41;;;;;;;;;5.00;5.00;;;;;12.43;100.00;101369.50;5090894;28;49733;-72
2022/12/19 21:02:06;;;;;;;;;6.00;5.75;;;;;12.46;100.00;101365.22;5090852;28;49373;-73
2022/12/19 21:04:32;;;;;;;;;4.25;4.25;;;;;12.97;100.00;101442.72;5088755;27;50189;-69
2022/12/19 21:06:57;;;;;;;;;5.00;5.00;;;;;12.96;100.00;101449.75;5081686;28;49790;-70
2022/12/19 21:09:22;;;;;;;;;6.25;6.00;;;;;13.00;100.00;101466.50;5081031;27;50327;-66
2022/12/19 21:11:48;;;;;;;;;4.25;4.25;;;;;12.74;100.00;101395.69;5091554;27;49632;-74
2022/12/19 21:14:13;;;;;;;;;6.50;6.50;;;;;11.95;100.00;101278.91;5089641;28;49446;-72
2022/12/19 21:16:38;;;;;;;;;7.25;4.00;;;;;12.52;100.00;101352.16;5091188;28;49561;-68
2022/12/19 21:19:04;;;;;;;;;8.50;6.75;;;;;11.71;100.00;101233.59;5095802;27;50338;-71
2022/12/19 21:21:30;;;;;;;;;8.25;5.75;;;;;12.41;100.00;101337.88;5089068;28;49306;-63
2022/12/19 21:23:55;;;;;;;;;5.00;5.00;;;;;12.40;100.00;101357.16;5088653;27;49284;-62
2022/12/19 21:26:23;;;;;;;;;4.00;4.00;;;;;12.76;100.00;101379.94;5073507;27;50112;-75
2022/12/19 21:28:49;;;;;;;;;7.00;5.75;;;;;12.98;100.00;101413.78;5072293;28;50461;-73
2022/12/19 21:31:20;;;;;;;;;7.25;6.00;;;;;12.93;100.00;101394.31;5072645;28;49810;-68
2022/12/19 21:33:46;;;;;;;;;4.75;4.75;;;;;12.27;100.00;101306.00;5072567;28;49836;-64
2022/12/19 21:36:17;;;;;;;;;9.75;7.75;;;;;12.26;100.00;101303.31;5072552;27;49771;-72
2022/12/19 21:38:44;;;;;;;;;7.00;5.50;;;;;12.87;100.00;101373.13;5075067;27;50556;-65
2022/12/19 21:41:09;;;;;;;;;5.25;4.75;;;;;12.93;100.00;101360.06;5075727;27;50066;-68
2022/12/19 21:43:35;;;;;;;;;5.50;5.00;;;;;13.15;100.00;101387.78;5072639;27;50077;-70
2022/12/19 21:46:09;;;;;;;;;4.00;4.00;;;;;13.14;100.00;101386.88;5079594;27;49579;-75
2022/12/19 21:48:36;;;;;;;;;5.00;4.00;;;;;12.98;100.00;101370.72;5073637;27;50428;-72
